Time;durP1;ratioP1;P1;durP2;ratioP2;P2;SDS_P1;SDS_P2;PMS_P1;PMS_P2;Temp;Humidity;BMP_temperature;BMP_pressure;BME280_temperature;BME280_humidity;BME280_pressure;Samples;Min_cycle;Max_cycle;Signal;HPM_P1;HPM_P2
2021/05/03 00:00:16;;;;;;;2.72;2.20;;;10.30;99.90;;;;;;5066453;28;20024;-64
2021/05/03 00:02:42;;;;;;;2.78;2.28;;;10.40;99.90;;;;;;5065449;28;20023;-64
2021/05/03 00:05:19;;;;;;;2.45;2.08;;;10.40;99.90;;;;;;5065636;28;20032;-63
2021/05/03 00:07:44;;;;;;;3.55;2.20;;;10.50;99.90;;;;;;5065408;28;20095;-64
2021/05/03 00:10:11;;;;;;;3.28;2.72;;;10.50;99.90;;;;;;5064559;28;20091;-64
2021/05/03 00:12:36;;;;;;;2.50;2.30;;;10.50;99.90;;;;;;5069060;28;20021;-63
2021/05/03 00:15:03;;;;;;;2.63;2.42;;;10.50;99.90;;;;;;5069674;28;20021;-63
2021/05/03 00:17:28;;;;;;;5.82;2.47;;;10.50;99.90;;;;;;5069220;28;20100;-63
2021/05/03 00:19:54;;;;;;;5.72;2.50;;;10.30;99.90;;;;;;5069539;28;20735;-63
2021/05/03 00:22:20;;;;;;;2.63;2.10;;;10.20;99.90;;;;;;5068982;28;20471;-63
2021/05/03 00:24:45;;;;;;;4.40;3.28;;;10.20;99.90;;;;;;5069885;28;20025;-63
2021/05/03 00:27:11;;;;;;;3.78;2.80;;;10.00;99.90;;;;;;5069472;28;20397;-63
2021/05/03 00:29:36;;;;;;;6.00;3.35;;;9.80;99.90;;;;;;5068909;28;20028;-63
2021/05/03 00:32:02;;;;;;;3.83;3.00;;;9.70;99.90;;;;;;5068934;28;20035;-63
2021/05/03 00:34:28;;;;;;;2.97;2.67;;;9.70;99.90;;;;;;5069166;28;20105;-64
2021/05/03 00:36:55;;;;;;;3.25;2.95;;;10.00;99.90;;;;;;5069078;28;20025;-64
2021/05/03 00:39:20;;;;;;;4.63;2.90;;;10.20;99.90;;;;;;5068961;28;20043;-64
2021/05/03 00:41:46;;;;;;;3.50;2.63;;;10.20;99.90;;;;;;5069368;28;20028;-64
2021/05/03 00:44:12;;;;;;;2.63;2.40;;;10.10;99.90;;;;;;5055871;28;20029;-64
2021/05/03 00:46:39;;;;;;;3.38;2.67;;;10.20;99.90;;;;;;5068540;28;20124;-64
2021/05/03 00:49:05;;;;;;;3.17;2.70;;;10.20;99.90;;;;;;5057032;28;20017;-64
2021/05/03 00:51:32;;;;;;;2.60;2.40;;;10.20;99.90;;;;;;5056008;28;20021;-64
2021/05/03 00:53:58;;;;;;;2.55;2.33;;;10.00;99.90;;;;;;5049693;28;20028;-63
2021/05/03 00:56:25;;;;;;;2.80;2.40;;;9.90;99.90;;;;;;5058354;28;20403;-64
2021/05/03 00:58:51;;;;;;;4.63;2.60;;;10.00;99.90;;;;;;5066817;28;20526;-64
2021/05/03 01:01:18;;;;;;;3.10;2.63;;;9.90;99.90;;;;;;5067101;28;20028;-64
2021/05/03 01:03:43;;;;;;;2.53;1.90;;;9.70;99.90;;;;;;5065741;28;20028;-64
2021/05/03 01:06:09;;;;;;;2.60;2.33;;;9.40;99.90;;;;;;5066604;28;20035;-64
2021/05/03 01:08:35;;;;;;;2.30;2.10;;;9.20;99.90;;;;;;5066731;28;20081;-64
2021/05/03 01:11:01;;;;;;;4.25;2.58;;;9.20;99.90;;;;;;5066920;28;20036;-63
2021/05/03 01:13:27;;;;;;;2.22;2.03;;;9.10;99.90;;;;;;5067086;28;20066;-64
2021/05/03 01:15:53;;;;;;;2.20;2.00;;;9.00;99.90;;;;;;5066747;28;20486;-64
2021/05/03 01:18:24;;;;;;;2.88;2.55;;;8.90;99.90;;;;;;5066930;28;20028;-64
2021/05/03 01:20:57;;;;;;;2.47;2.28;;;8.90;99.90;;;;;;5066701;28;20039;-64
2021/05/03 01:23:23;;;;;;;2.50;2.15;;;9.00;99.90;;;;;;5064188;28;20032;-64
2021/05/03 01:25:50;;;;;;;2.92;2.10;;;9.10;99.90;;;;;;5065644;28;20033;-64
2021/05/03 01:28:16;;;;;;;3.13;2.53;;;9.20;99.90;;;;;;5066698;28;20384;-64
2021/05/03 01:30:44;;;;;;;3.22;2.60;;;9.10;99.90;;;;;;5066237;28;20013;-63
2021/05/03 01:33:12;;;;;;;4.30;2.50;;;9.10;99.90;;;;;;5066586;28;20029;-64
2021/05/03 01:35:39;;;;;;;3.55;2.45;;;9.00;99.90;;;;;;5066278;28;20037;-64
2021/05/03 01:38:07;;;;;;;2.85;2.50;;;9.00;99.90;;;;;;5066427;28;20028;-64
2021/05/03 01:40:34;;;;;;;6.70;3.55;;;9.10;99.90;;;;;;5065956;28;20028;-64
2021/05/03 01:43:21;;;;;;;5.47;3.70;;;9.00;99.90;;;;;;5066923;28;20025;-63
2021/05/03 01:45:48;;;;;;;5.18;3.67;;;9.10;99.90;;;;;;5066215;28;20032;-63
2021/05/03 01:48:18;;;;;;;4.72;3.80;;;9.20;99.90;;;;;;5066263;28;20028;-63
2021/05/03 01:50:45;;;;;;;6.80;4.22;;;9.10;99.90;;;;;;5065831;28;20414;-63
2021/05/03 01:53:12;;;;;;;5.45;4.20;;;9.00;99.90;;;;;;5066014;28;20032;-63
2021/05/03 01:55:39;;;;;;;4.13;3.55;;;9.10;99.90;;;;;;5065756;28;20024;-63
2021/05/03 01:58:07;;;;;;;4.35;3.70;;;9.00;99.90;;;;;;5066138;28;20095;-63
2021/05/03 02:00:34;;;;;;;4.97;3.72;;;8.90;99.90;;;;;;5065635;28;20039;-63
2021/05/03 02:03:00;;;;;;;6.97;3.85;;;8.90;99.90;;;;;;5065705;28;20051;-63
2021/05/03 02:05:28;;;;;;;4.00;3.42;;;8.70;99.90;;;;;;5064560;28;20406;-63
2021/05/03 02:07:57;;;;;;;4.80;3.45;;;8.80;99.90;;;;;;5066203;28;20016;-63
2021/05/03 02:10:23;;;;;;;4.97;3.63;;;8.70;99.90;;;;;;5064940;28;20037;-63
2021/05/03 02:12:50;;;;;;;5.35;4.43;;;8.60;99.90;;;;;;5065965;28;20024;-63
2021/05/03 02:15:15;;;;;;;4.07;3.40;;;8.60;99.90;;;;;;5065511;28;20045;-63
2021/05/03 02:17:41;;;;;;;4.25;3.63;;;8.70;99.90;;;;;;5065132;28;20422;-63
2021/05/03 02:20:07;;;;;;;4.50;3.47;;;8.60;99.90;;;;;;5065421;28;20028;-63
2021/05/03 02:22:33;;;;;;;5.15;3.83;;;8.50;99.90;;;;;;5064979;28;20036;-63
2021/05/03 02:24:58;;;;;;;5.25;4.00;;;8.50;99.90;;;;;;5065921;28;20029;-63
2021/05/03 02:27:24;;;;;;;4.70;3.97;;;8.50;99.90;;;;;;5065109;28;20483;-63
2021/05/03 02:29:51;;;;;;;4.60;4.10;;;8.50;99.90;;;;;;5065513;28;20043;-63
2021/05/03 02:32:16;;;;;;;4.30;3.90;;;8.30;99.90;;;;;;5065465;28;20517;-63
2021/05/03 02:34:42;;;;;;;4.97;4.13;;;8.30;99.90;;;;;;5064166;28;20025;-63
2021/05/03 02:37:08;;;;;;;4.57;3.65;;;8.30;99.90;;;;;;5065261;28;20020;-64
2021/05/03 02:39:34;;;;;;;4.65;4.00;;;8.20;99.90;;;;;;5064950;28;20028;-63
2021/05/03 02:42:00;;;;;;;4.40;3.95;;;8.30;99.90;;;;;;5066110;28;20536;-63
2021/05/03 02:44:26;;;;;;;4.97;4.20;;;8.30;99.90;;;;;;5064791;28;20059;-63
2021/05/03 02:46:51;;;;;;;5.47;4.55;;;8.30;99.90;;;;;;5046485;28;20060;-63
2021/05/03 02:49:17;;;;;;;5.80;4.45;;;8.40;99.90;;;;;;5045379;28;20052;-63
2021/05/03 02:51:42;;;;;;;6.20;4.57;;;8.50;99.90;;;;;;5061237;28;20021;-63
2021/05/03 02:54:08;;;;;;;6.78;4.55;;;8.50;99.90;;;;;;5065100;28;20028;-63
2021/05/03 02:56:34;;;;;;;4.63;4.18;;;8.40;99.90;;;;;;5064407;28;20056;-64
2021/05/03 02:59:01;;;;;;;5.72;4.35;;;8.30;99.90;;;;;;5065110;28;20068;-63
2021/05/03 03:01:27;;;;;;;6.57;4.20;;;8.20;99.90;;;;;;5063637;28;20036;-63
2021/05/03 03:03:53;;;;;;;5.50;3.92;;;8.00;99.90;;;;;;5064843;28;20036;-64
2021/05/03 03:06:19;;;;;;;5.35;4.15;;;8.00;99.90;;;;;;5064837;28;20021;-64
2021/05/03 03:08:44;;;;;;;5.97;3.88;;;7.90;99.90;;;;;;5063874;28;20448;-63
2021/05/03 03:11:11;;;;;;;4.65;3.67;;;7.80;99.90;;;;;;5064571;28;20506;-63
2021/05/03 03:13:37;;;;;;;5.60;4.45;;;7.80;99.90;;;;;;5064388;28;20028;-63
2021/05/03 03:16:03;;;;;;;5.43;4.13;;;7.80;99.90;;;;;;5064828;28;20021;-63
2021/05/03 03:18:29;;;;;;;4.95;4.07;;;7.60;99.90;;;;;;5064609;28;20247;-63
2021/05/03 03:20:54;;;;;;;4.35;3.78;;;7.60;99.90;;;;;;5064170;28;20466;-63
2021/05/03 03:23:21;;;;;;;5.25;3.65;;;7.60;99.90;;;;;;5064318;28;20032;-63
2021/05/03 03:25:47;;;;;;;4.32;3.70;;;7.60;99.90;;;;;;5064523;28;20032;-63
2021/05/03 03:28:13;;;;;;;4.10;3.50;;;7.50;99.90;;;;;;5065495;28;20159;-63
2021/05/03 03:30:39;;;;;;;4.03;3.45;;;7.40;99.90;;;;;;5064284;28;20095;-63
2021/05/03 03:33:05;;;;;;;5.00;3.88;;;7.40;99.90;;;;;;5064877;28;20508;-63
2021/05/03 03:35:30;;;;;;;5.32;4.03;;;7.40;99.90;;;;;;5063755;28;20467;-63
2021/05/03 03:37:56;;;;;;;5.18;3.45;;;7.20;99.90;;;;;;5064877;28;20039;-63
2021/05/03 03:40:22;;;;;;;4.82;4.10;;;7.30;99.90;;;;;;5063982;28;20031;-63
2021/05/03 03:42:48;;;;;;;3.83;3.53;;;7.40;99.90;;;;;;5064032;28;20032;-63
2021/05/03 03:45:15;;;;;;;4.68;3.72;;;7.40;99.90;;;;;;5064928;28;20119;-63
2021/05/03 03:47:43;;;;;;;4.18;3.65;;;7.40;99.90;;;;;;5068526;28;20035;-63
2021/05/03 03:50:09;;;;;;;4.53;4.10;;;7.20;99.90;;;;;;5068383;28;20024;-66
2021/05/03 03:52:36;;;;;;;4.13;3.60;;;7.10;99.90;;;;;;5068193;28;20143;-63
2021/05/03 03:55:02;;;;;;;4.97;4.10;;;7.30;99.90;;;;;;5068328;28;20483;-63
2021/05/03 03:57:29;;;;;;;6.47;4.63;;;7.40;99.90;;;;;;5068231;28;20047;-63
2021/05/03 03:59:57;;;;;;;5.10;4.20;;;7.40;99.90;;;;;;5068546;28;20129;-63
2021/05/03 04:02:23;;;;;;;5.00;4.50;;;7.30;99.90;;;;;;5069542;28;20027;-62
2021/05/03 04:05:18;;;;;;;5.80;4.45;;;7.20;99.90;;;;;;5068289;28;20483;-63
2021/05/03 04:26:07;;;;;;;5.97;4.80;;;7.00;99.90;;;;;;5049203;28;20045;-63
2021/05/03 04:28:33;;;;;;;6.82;5.13;;;7.10;99.90;;;;;;5068753;28;20062;-63
2021/05/03 04:30:58;;;;;;;5.90;4.68;;;7.10;99.90;;;;;;5069163;28;20024;-63
2021/05/03 04:33:24;;;;;;;8.43;5.20;;;7.30;99.90;;;;;;5068456;28;20028;-63
2021/05/03 04:35:50;;;;;;;6.95;5.00;;;7.10;99.90;;;;;;5069137;28;20799;-63
2021/05/03 04:38:15;;;;;;;8.52;5.13;;;7.10;99.90;;;;;;5069045;28;20032;-63
2021/05/03 04:40:44;;;;;;;5.97;5.20;;;7.10;99.90;;;;;;5069199;28;20027;-63
2021/05/03 04:43:10;;;;;;;8.05;5.32;;;7.00;99.90;;;;;;5067808;28;20460;-63
2021/05/03 04:45:36;;;;;;;8.15;6.15;;;7.20;99.90;;;;;;5067834;28;20029;-63
2021/05/03 04:48:02;;;;;;;6.88;5.82;;;7.20;99.90;;;;;;5067271;28;20032;-63
2021/05/03 04:50:28;;;;;;;6.22;4.90;;;7.30;99.90;;;;;;5066842;28;20024;-63
2021/05/03 04:52:54;;;;;;;9.27;6.55;;;7.20;99.90;;;;;;5067078;28;20035;-63
2021/05/03 04:55:21;;;;;;;6.10;5.18;;;7.20;99.90;;;;;;5067281;28;20024;-63
2021/05/03 04:57:46;;;;;;;6.55;5.32;;;7.20;99.90;;;;;;5066633;28;20555;-64
2021/05/03 05:00:12;;;;;;;7.95;5.43;;;7.10;99.90;;;;;;5067761;28;20081;-63
2021/05/03 05:02:38;;;;;;;6.07;5.05;;;7.10;99.90;;;;;;5065495;28;20020;-64
2021/05/03 05:05:04;;;;;;;6.00;4.93;;;7.10;99.90;;;;;;5066091;28;20087;-64
2021/05/03 05:07:30;;;;;;;6.43;5.15;;;7.10;99.90;;;;;;5066994;28;20029;-63
2021/05/03 05:09:56;;;;;;;7.80;5.85;;;7.10;99.90;;;;;;5063167;28;20044;-64
2021/05/03 05:12:23;;;;;;;6.50;4.93;;;7.00;99.90;;;;;;5066487;28;20021;-64
2021/05/03 05:14:49;;;;;;;7.38;5.13;;;6.90;99.90;;;;;;5066688;28;20028;-64
2021/05/03 05:17:14;;;;;;;6.70;5.32;;;7.10;99.90;;;;;;5067415;28;20509;-64
2021/05/03 05:19:41;;;;;;;6.75;4.85;;;7.10;99.90;;;;;;5066616;28;20047;-64
2021/05/03 05:22:07;;;;;;;6.60;5.15;;;7.00;99.90;;;;;;5066824;28;20031;-64
2021/05/03 05:24:35;;;;;;;7.55;5.40;;;7.10;99.90;;;;;;5066552;28;20025;-64
2021/05/03 05:27:02;;;;;;;6.95;5.28;;;7.20;99.90;;;;;;5066567;28;20033;-64
2021/05/03 05:29:28;;;;;;;5.57;4.78;;;7.30;99.90;;;;;;5066288;28;20020;-64
2021/05/03 05:31:55;;;;;;;7.18;5.13;;;7.40;99.90;;;;;;5066521;28;20503;-64
2021/05/03 05:34:21;;;;;;;7.55;5.30;;;7.40;99.90;;;;;;5065691;28;20029;-64
2021/05/03 05:36:48;;;;;;;6.70;5.68;;;7.50;99.90;;;;;;5066410;28;20513;-64
2021/05/03 05:39:14;;;;;;;9.18;5.43;;;7.70;99.90;;;;;;5067066;28;20025;-64
2021/05/03 05:41:41;;;;;;;7.57;5.50;;;7.80;99.90;;;;;;5066535;28;20128;-64
2021/05/03 05:44:07;;;;;;;6.55;5.28;;;7.80;99.90;;;;;;5066236;28;20056;-64
2021/05/03 05:46:34;;;;;;;7.40;4.82;;;7.90;99.90;;;;;;5065652;28;20515;-64
2021/05/03 05:48:59;;;;;;;5.97;4.97;;;7.90;99.90;;;;;;5065941;28;20028;-64
2021/05/03 05:51:25;;;;;;;6.88;5.10;;;7.80;99.90;;;;;;5065968;28;20352;-64
2021/05/03 05:53:52;;;;;;;5.82;4.93;;;7.90;99.90;;;;;;5066022;28;20070;-64
2021/05/03 05:56:18;;;;;;;6.20;4.97;;;8.00;99.90;;;;;;5066101;28;20066;-64
2021/05/03 05:58:45;;;;;;;6.43;5.00;;;7.90;99.90;;;;;;5066459;28;20028;-64
2021/05/03 06:01:11;;;;;;;5.85;4.50;;;8.00;99.90;;;;;;5066254;28;20035;-64
2021/05/03 06:03:37;;;;;;;6.28;4.70;;;8.00;99.90;;;;;;5065626;28;20199;-64
2021/05/03 06:06:03;;;;;;;6.63;4.40;;;8.10;99.90;;;;;;5054602;28;20071;-64
2021/05/03 06:08:29;;;;;;;5.32;4.47;;;8.00;99.90;;;;;;5064702;28;20107;-64
2021/05/03 06:10:55;;;;;;;6.00;4.45;;;8.20;99.90;;;;;;5066969;28;20120;-64
2021/05/03 06:13:20;;;;;;;6.60;5.13;;;8.10;99.90;;;;;;5066975;28;20111;-64
2021/05/03 06:15:46;;;;;;;4.57;3.92;;;8.10;99.90;;;;;;5066893;28;20493;-64
2021/05/03 06:18:12;;;;;;;7.97;4.60;;;8.10;99.90;;;;;;5067518;28;20422;-64
2021/05/03 06:20:38;;;;;;;5.45;4.47;;;8.30;99.90;;;;;;5064731;28;20021;-64
2021/05/03 06:23:06;;;;;;;5.97;4.80;;;8.30;99.90;;;;;;5059084;28;20064;-64
2021/05/03 06:25:33;;;;;;;5.82;4.20;;;8.30;99.90;;;;;;5064833;28;20028;-64
2021/05/03 06:27:59;;;;;;;8.00;4.85;;;8.40;99.90;;;;;;5065207;28;20585;-64
2021/05/03 06:30:26;;;;;;;7.43;5.18;;;8.60;99.90;;;;;;5065213;28;20020;-64
2021/05/03 06:32:53;;;;;;;5.53;4.88;;;8.60;99.90;;;;;;5065114;28;20052;-64
2021/05/03 06:35:19;;;;;;;4.57;4.00;;;8.60;99.90;;;;;;5065237;28;20103;-64
2021/05/03 06:37:46;;;;;;;4.88;3.55;;;8.50;99.90;;;;;;5065668;28;20418;-64
2021/05/03 06:40:12;;;;;;;5.22;4.10;;;8.40;99.90;;;;;;5061068;28;20024;-64
2021/05/03 06:42:38;;;;;;;5.18;3.85;;;8.40;99.90;;;;;;5060900;28;20024;-64
2021/05/03 06:45:05;;;;;;;5.63;3.88;;;8.40;99.90;;;;;;5064893;28;20099;-64
2021/05/03 06:47:31;;;;;;;4.75;3.50;;;8.40;99.90;;;;;;5064706;28;20021;-64
2021/05/03 06:49:57;;;;;;;4.20;3.53;;;8.40;99.90;;;;;;5060169;28;20040;-63
2021/05/03 06:52:23;;;;;;;5.65;3.85;;;8.60;99.90;;;;;;5044892;28;20021;-63
2021/05/03 06:54:49;;;;;;;3.90;3.50;;;8.50;99.90;;;;;;5044563;28;20032;-63
2021/05/03 06:57:16;;;;;;;3.83;3.40;;;8.60;99.90;;;;;;5044936;28;20029;-63
2021/05/03 06:59:43;;;;;;;4.88;3.40;;;8.60;99.90;;;;;;5045103;28;20495;-62
2021/05/03 07:02:10;;;;;;;5.55;3.50;;;8.70;99.90;;;;;;5044927;28;20047;-62
2021/05/03 07:04:37;;;;;;;4.85;3.33;;;8.90;99.90;;;;;;5044620;28;20037;-63
2021/05/03 07:07:04;;;;;;;4.13;3.15;;;9.00;99.90;;;;;;5044641;28;20070;-63
2021/05/03 07:09:30;;;;;;;3.72;2.60;;;8.90;99.90;;;;;;5044101;28;20037;-63
2021/05/03 07:11:57;;;;;;;5.15;2.53;;;8.80;99.90;;;;;;5045173;28;20028;-63
2021/05/03 07:14:23;;;;;;;3.05;2.75;;;8.70;99.90;;;;;;5044179;28;20021;-63
2021/05/03 07:16:50;;;;;;;3.53;2.78;;;8.90;99.90;;;;;;5044696;28;20032;-63
2021/05/03 07:19:15;;;;;;;6.68;3.25;;;9.10;99.90;;;;;;5044822;28;20032;-63
2021/05/03 07:21:41;;;;;;;4.70;3.33;;;9.10;99.90;;;;;;5049012;28;20032;-63
2021/05/03 07:24:09;;;;;;;4.65;3.10;;;9.00;99.90;;;;;;5048902;28;20029;-63
2021/05/03 07:26:35;;;;;;;3.90;3.10;;;9.10;99.90;;;;;;5048488;28;20029;-63
2021/05/03 07:29:00;;;;;;;4.15;3.20;;;9.30;99.90;;;;;;5048785;28;20029;-63
2021/05/03 07:31:26;;;;;;;4.68;2.92;;;9.30;99.90;;;;;;5048570;28;20017;-63
2021/05/03 07:33:52;;;;;;;4.30;3.42;;;9.40;99.90;;;;;;5048718;28;20205;-63
2021/05/03 07:36:19;;;;;;;4.40;3.10;;;9.30;99.90;;;;;;5048702;28;20021;-63
2021/05/03 07:38:45;;;;;;;4.35;3.00;;;9.10;99.90;;;;;;5049132;28;20083;-62
2021/05/03 07:41:11;;;;;;;3.53;2.85;;;9.30;99.90;;;;;;5049234;28;20443;-63
2021/05/03 07:43:36;;;;;;;3.95;2.70;;;9.40;99.90;;;;;;5048194;28;20115;-63
2021/05/03 07:46:03;;;;;;;4.03;2.60;;;9.50;99.90;;;;;;5048341;28;20406;-62
2021/05/03 07:48:29;;;;;;;2.95;2.72;;;9.70;99.90;;;;;;5048367;28;20025;-62
2021/05/03 07:50:56;;;;;;;4.40;2.90;;;9.70;99.90;;;;;;5048333;28;20024;-62
2021/05/03 07:53:22;;;;;;;3.30;3.00;;;9.90;99.90;;;;;;5048277;28;20025;-63
2021/05/03 07:55:47;;;;;;;3.20;2.90;;;9.80;99.90;;;;;;5048310;28;20411;-63
2021/05/03 07:58:13;;;;;;;3.70;3.15;;;9.90;99.90;;;;;;5048329;28;20029;-63
2021/05/03 08:00:39;;;;;;;3.15;2.85;;;9.90;99.90;;;;;;5056659;28;20020;-61
2021/05/03 08:03:04;;;;;;;2.92;2.60;;;9.80;99.90;;;;;;5068084;28;20566;-61
2021/05/03 08:05:30;;;;;;;4.40;3.25;;;10.00;99.90;;;;;;5067467;28;20591;-62
2021/05/03 08:07:56;;;;;;;4.28;2.95;;;9.80;99.90;;;;;;5060408;28;20500;-62
2021/05/03 08:10:22;;;;;;;3.47;2.72;;;9.80;99.90;;;;;;5047556;28;20059;-62
2021/05/03 08:12:48;;;;;;;3.70;3.10;;;9.70;99.90;;;;;;5047671;28;20059;-62
2021/05/03 08:15:15;;;;;;;3.20;2.80;;;9.90;99.90;;;;;;5048315;28;20020;-62
2021/05/03 08:17:46;;;;;;;3.75;2.70;;;10.00;99.90;;;;;;5047944;28;20072;-62
2021/05/03 08:20:14;;;;;;;5.97;2.72;;;10.10;99.90;;;;;;5048190;28;20052;-63
2021/05/03 08:22:40;;;;;;;3.80;2.60;;;10.10;99.90;;;;;;5047678;28;20037;-62
2021/05/03 08:25:07;;;;;;;3.10;2.80;;;10.10;99.90;;;;;;5047574;28;20021;-62
2021/05/03 08:27:35;;;;;;;3.05;2.75;;;10.10;99.90;;;;;;5047490;28;20059;-62
2021/05/03 08:30:01;;;;;;;2.78;2.38;;;10.10;99.90;;;;;;5047953;28;20032;-61
2021/05/03 08:32:27;;;;;;;3.25;2.60;;;10.30;99.90;;;;;;5046309;28;20487;-62
2021/05/03 08:34:52;;;;;;;2.53;2.33;;;10.30;99.90;;;;;;5047842;28;20036;-62
2021/05/03 08:37:18;;;;;;;2.38;2.17;;;10.40;99.90;;;;;;5047678;28;20055;-61
2021/05/03 08:39:44;;;;;;;3.97;2.47;;;10.60;99.90;;;;;;5047556;28;20512;-62
2021/05/03 08:42:11;;;;;;;2.88;2.58;;;10.50;99.90;;;;;;5047703;28;20120;-62
2021/05/03 08:44:36;;;;;;;4.07;2.67;;;10.40;99.90;;;;;;5047255;28;20115;-62
2021/05/03 08:47:03;;;;;;;3.70;2.92;;;10.50;99.90;;;;;;5047397;28;20103;-62
2021/05/03 08:52:19;;;;;;;2.65;2.15;;;10.60;99.90;;;;;;5047788;28;20422;-62
2021/05/03 08:54:46;;;;;;;1.98;1.70;;;10.60;99.90;;;;;;5047751;28;20024;-62
2021/05/03 08:57:14;;;;;;;3.05;2.05;;;10.80;99.90;;;;;;5048093;28;20529;-62
2021/05/03 08:59:42;;;;;;;3.60;3.15;;;10.80;99.90;;;;;;5047427;28;20037;-62
2021/05/03 09:02:10;;;;;;;3.50;2.65;;;10.70;99.90;;;;;;5047120;28;20120;-62
2021/05/03 09:04:35;;;;;;;2.47;2.25;;;10.90;99.90;;;;;;5046685;28;20090;-62
2021/05/03 09:07:05;;;;;;;3.38;1.83;;;11.10;99.90;;;;;;5047258;28;20280;-62
2021/05/03 09:09:40;;;;;;;1.70;1.48;;;11.30;99.90;;;;;;5078081;28;20190;-62
2021/05/03 09:12:14;;;;;;;2.22;1.60;;;11.40;99.90;;;;;;5047012;28;20048;-62
2021/05/03 09:14:46;;;;;;;;;;;11.40;99.90;;;;;;5047343;28;20417;-62
2021/05/03 09:17:31;;;;;;;1.77;1.65;;;11.40;99.90;;;;;;5047231;28;19928;-62
2021/05/03 09:19:59;;;;;;;1.50;1.38;;;11.40;99.90;;;;;;5046926;28;20033;-62
2021/05/03 09:22:28;;;;;;;1.40;1.30;;;11.60;99.90;;;;;;5046591;28;20021;-62
2021/05/03 09:25:12;;;;;;;2.20;1.40;;;11.50;99.90;;;;;;5047098;28;20025;-62
2021/05/03 09:27:38;;;;;;;1.17;1.07;;;11.70;99.90;;;;;;5045686;28;20044;-62
2021/05/03 09:30:05;;;;;;;2.67;1.80;;;11.80;99.90;;;;;;5046389;28;20029;-63
2021/05/03 09:32:32;;;;;;;2.65;2.38;;;11.60;99.90;;;;;;5046300;28;20029;-62
2021/05/03 09:34:58;;;;;;;1.80;1.60;;;11.50;99.90;;;;;;5046460;28;20021;-62
2021/05/03 09:37:33;;;;;;;2.10;1.60;;;11.60;99.90;;;;;;5045390;28;20071;-62
2021/05/03 09:40:08;;;;;;;1.42;1.33;;;11.70;99.90;;;;;;5046440;28;20025;-62
2021/05/03 09:42:55;;;;;;;1.60;1.50;;;11.80;99.90;;;;;;5046128;28;20037;-62
2021/05/03 09:45:27;;;;;;;3.15;2.80;;;12.00;99.90;;;;;;5045765;28;20353;-62
2021/05/03 09:47:58;;;;;;;2.45;2.25;;;11.80;99.90;;;;;;5045963;28;20020;-62
2021/05/03 09:50:30;;;;;;;3.25;2.25;;;11.90;99.90;;;;;;5045881;28;20313;-62
2021/05/03 09:53:02;;;;;;;4.28;2.70;;;12.00;99.90;;;;;;5046463;28;20051;-62
2021/05/03 09:55:45;;;;;;;3.33;1.60;;;12.00;99.90;;;;;;5045855;28;20032;-62
2021/05/03 09:58:16;;;;;;;1.23;1.13;;;12.20;99.90;;;;;;5046528;28;20457;-62
2021/05/03 10:00:50;;;;;;;2.30;2.10;;;12.20;99.90;;;;;;5045933;28;20056;-61
2021/05/03 10:06:18;;;;;;;1.58;1.40;;;12.30;99.90;;;;;;5045816;28;20531;-62
2021/05/03 10:08:48;;;;;;;1.40;1.23;;;12.50;99.90;;;;;;5045117;28;20574;-61
2021/05/03 10:11:17;;;;;;;1.30;1.15;;;12.60;99.90;;;;;;5046388;28;20032;-62
2021/05/03 10:13:45;;;;;;;1.30;1.20;;;12.70;99.90;;;;;;5045801;28;20017;-62
2021/05/03 10:16:13;;;;;;;1.48;0.90;;;12.70;99.90;;;;;;5046072;28;20390;-62
2021/05/03 10:18:41;;;;;;;1.17;0.90;;;12.90;99.90;;;;;;5045669;28;20029;-62
2021/05/03 10:21:13;;;;;;;3.35;1.40;;;12.90;99.90;;;;;;5045667;28;20506;-62
2021/05/03 10:23:41;;;;;;;2.03;1.67;;;12.60;99.90;;;;;;5045333;28;20235;-62
2021/05/03 10:26:08;;;;;;;2.13;1.50;;;12.70;99.90;;;;;;5045436;28;20249;-62
2021/05/03 10:28:52;;;;;;;2.20;1.60;;;12.90;99.90;;;;;;5045369;28;20450;-62
2021/05/03 10:31:19;;;;;;;1.75;1.60;;;12.80;99.90;;;;;;5045530;28;20442;-62
2021/05/03 10:33:46;;;;;;;2.45;2.10;;;12.80;99.90;;;;;;5045083;28;20021;-62
2021/05/03 10:36:34;;;;;;;1.52;1.42;;;12.80;99.90;;;;;;5046078;28;20102;-62
2021/05/03 10:39:01;;;;;;;1.30;1.20;;;13.10;99.90;;;;;;5046155;28;20029;-62
2021/05/03 10:41:31;;;;;;;1.20;1.10;;;13.30;99.90;;;;;;5063922;28;20044;-63
2021/05/03 10:44:23;;;;;;;0.70;0.70;;;13.40;99.90;;;;;;5062806;28;20119;-62
2021/05/03 10:46:55;;;;;;;1.60;1.38;;;13.70;99.90;;;;;;5064989;28;20025;-62
2021/05/03 10:49:35;;;;;;;1.20;1.10;;;13.50;99.90;;;;;;5064830;28;20020;-62
2021/05/03 10:52:05;;;;;;;0.90;0.82;;;13.70;99.90;;;;;;5064678;28;20028;-64
2021/05/03 10:57:29;;;;;;;0.90;0.90;;;14.10;99.90;;;;;;5066016;28;20028;-64
2021/05/03 10:59:57;;;;;;;0.70;0.70;;;14.20;99.90;;;;;;5065901;28;20012;-63
2021/05/03 11:02:44;;;;;;;0.82;0.82;;;14.40;99.90;;;;;;5065687;28;20044;-63
2021/05/03 11:05:23;;;;;;;1.40;1.10;;;14.20;99.90;;;;;;5065759;28;20028;-63
2021/05/03 11:08:04;;;;;;;0.80;0.80;;;14.30;99.90;;;;;;5062996;28;20445;-63
2021/05/03 11:10:55;;;;;;;0.70;0.60;;;14.30;99.90;;;;;;5063640;28;20033;-62
2021/05/03 11:13:36;;;;;;;0.68;0.68;;;14.40;99.90;;;;;;5062391;28;20393;-62
2021/05/03 11:16:27;;;;;;;0.70;0.68;;;14.50;99.90;;;;;;5064224;28;20036;-63
2021/05/03 11:18:55;;;;;;;0.43;0.43;;;14.70;99.90;;;;;;5064196;28;20021;-62
2021/05/03 11:21:43;;;;;;;1.05;0.80;;;14.80;99.90;;;;;;5064244;28;20535;-62
2021/05/03 11:24:20;;;;;;;0.63;0.63;;;14.90;99.90;;;;;;5063896;28;20029;-62
2021/05/03 11:26:52;;;;;;;0.95;0.93;;;15.10;99.90;;;;;;5064437;28;20024;-62
2021/05/03 11:29:22;;;;;;;0.80;0.80;;;15.30;99.90;;;;;;5063858;28;20017;-62
2021/05/03 11:31:49;;;;;;;3.33;0.98;;;15.30;99.90;;;;;;5064489;28;20029;-63
2021/05/03 11:36:58;;;;;;;0.90;0.90;;;15.40;99.90;;;;;;5063904;28;20033;-62
2021/05/03 11:40:11;;;;;;;1.08;0.90;;;15.40;99.90;;;;;;5061897;28;20491;-62
2021/05/03 11:44:58;;;;;;;2.05;0.65;;;15.30;99.90;;;;;;5063859;28;20059;-62
2021/05/03 11:47:38;;;;;;;1.08;0.75;;;15.50;99.90;;;;;;5065492;28;20162;-62
2021/05/03 11:50:04;;;;;;;1.00;0.90;;;15.70;98.90;;;;;;5065713;28;20052;-62
2021/05/03 11:52:32;;;;;;;0.73;0.73;;;15.60;99.10;;;;;;5065286;28;20035;-62
2021/05/03 11:55:12;;;;;;;2.15;0.70;;;16.00;98.90;;;;;;5064349;28;20031;-63
2021/05/03 11:57:46;;;;;;;0.70;0.68;;;15.80;97.70;;;;;;5068483;28;20510;-62
2021/05/03 12:00:14;;;;;;;;;;;16.20;97.50;;;;;;5062553;28;20082;-62
2021/05/03 12:02:41;;;;;;;0.55;0.40;;;16.50;98.10;;;;;;5063360;28;19916;-62
2021/05/03 12:05:15;;;;;;;1.02;0.70;;;16.50;96.60;;;;;;5063708;28;20037;-62
2021/05/03 12:07:43;;;;;;;1.95;0.50;;;16.60;96.10;;;;;;5065632;28;20056;-62
2021/05/03 12:10:27;;;;;;;0.65;0.65;;;16.70;95.80;;;;;;5067043;28;20064;-62
2021/05/03 12:12:54;;;;;;;1.00;0.80;;;16.80;94.80;;;;;;5067333;28;20046;-62
2021/05/03 12:15:26;;;;;;;1.40;1.30;;;16.40;94.20;;;;;;5066772;28;20350;-63
2021/05/03 12:17:53;;;;;;;0.70;0.70;;;16.30;94.00;;;;;;5065811;28;20102;-61
2021/05/03 12:20:24;;;;;;;0.80;0.77;;;16.80;95.10;;;;;;5061954;28;20517;-61
2021/05/03 12:23:03;;;;;;;0.52;0.50;;;17.30;95.90;;;;;;5049398;28;20078;-60
2021/05/03 12:25:40;;;;;;;0.70;0.60;;;17.60;94.60;;;;;;5048589;28;20020;-61
2021/05/03 12:28:14;;;;;;;0.50;0.50;;;17.80;93.60;;;;;;5047483;28;20028;-60
2021/05/03 12:30:41;;;;;;;0.55;0.40;;;17.90;95.00;;;;;;5048162;28;20040;-61
2021/05/03 12:33:19;;;;;;;1.92;0.88;;;18.10;93.40;;;;;;5047616;28;20051;-61
2021/05/03 12:35:46;;;;;;;0.95;0.90;;;17.40;91.60;;;;;;5047378;28;20499;-61
2021/05/03 12:38:28;;;;;;;0.70;0.70;;;17.20;92.20;;;;;;5048230;28;20032;-61
2021/05/03 12:40:55;;;;;;;0.60;0.60;;;17.40;92.20;;;;;;5047212;28;20498;-61
2021/05/03 12:43:30;;;;;;;0.52;0.52;;;17.80;92.60;;;;;;5046980;28;20485;-61
2021/05/03 12:46:05;;;;;;;0.88;0.50;;;17.90;91.50;;;;;;5047537;28;20078;-61
2021/05/03 12:59:08;;;;;;;0.70;0.70;;;18.00;90.80;;;;;;5066530;28;20031;-60
2021/05/03 13:06:50;;;;;;;1.95;0.85;;;18.60;89.50;;;;;;5066729;28;20457;-62
2021/05/03 13:29:12;;;;;;;0.50;0.50;;;18.90;84.70;;;;;;5086190;28;20028;-61
2021/05/03 13:31:41;;;;;;;1.13;0.90;;;19.20;85.00;;;;;;5077183;28;20044;-62
2021/05/03 13:34:13;;;;;;;1.30;1.13;;;18.70;83.90;;;;;;5065991;28;20103;-62
2021/05/03 13:36:42;;;;;;;0.65;0.60;;;18.60;82.90;;;;;;5065509;28;20116;-61
2021/05/03 13:39:10;;;;;;;0.70;0.50;;;18.90;83.90;;;;;;5065723;28;20032;-61
2021/05/03 13:41:43;;;;;;;0.60;0.50;;;19.20;85.30;;;;;;5065433;28;20429;-61
2021/05/03 13:44:10;;;;;;;1.30;0.83;;;19.50;84.20;;;;;;5065762;28;20031;-61
2021/05/03 13:46:36;;;;;;;2.28;1.08;;;19.20;81.40;;;;;;5065209;28;20287;-61
2021/05/03 13:49:03;;;;;;;1.02;0.82;;;18.90;83.50;;;;;;5065913;28;20035;-61
2021/05/03 13:51:29;;;;;;;0.52;0.52;;;19.10;82.60;;;;;;5065372;28;20016;-61
2021/05/03 13:53:56;;;;;;;1.05;0.50;;;19.10;81.60;;;;;;5065299;28;20410;-61
2021/05/03 13:56:21;;;;;;;0.50;0.50;;;19.10;82.10;;;;;;5064959;28;20429;-60
2021/05/03 13:58:48;;;;;;;0.70;0.60;;;19.20;81.90;;;;;;5065185;28;20103;-61
2021/05/03 14:01:15;;;;;;;0.55;0.52;;;19.60;82.30;;;;;;5065586;28;20046;-60
2021/05/03 14:03:41;;;;;;;0.82;0.68;;;19.70;81.30;;;;;;5065742;28;20028;-60
2021/05/03 14:06:08;;;;;;;4.43;1.23;;;19.50;80.00;;;;;;5065309;28;20269;-58